createdAt,value
2023-03-21T00:00:03.746Z,8.19
2023-03-21T00:01:03.864Z,8.12
2023-03-21T00:02:03.920Z,8.12
2023-03-21T00:03:03.754Z,8.12
2023-03-21T00:04:03.936Z,8.19
2023-03-21T00:05:13.530Z,8.19
2023-03-21T00:06:03.752Z,8.12
2023-03-21T00:07:03.756Z,8.12
2023-03-21T00:08:03.667Z,8.19
2023-03-21T00:09:03.840Z,8.12
2023-03-21T00:10:12.703Z,8.19
2023-03-21T00:11:03.910Z,8.12
2023-03-21T00:12:03.842Z,8.12
2023-03-21T00:13:03.824Z,8.12
2023-03-21T00:14:03.868Z,8.12
2023-03-21T00:15:03.839Z,8.12
2023-03-21T00:16:05.344Z,8.19
2023-03-21T00:17:04.793Z,8.19
2023-03-21T00:18:03.915Z,8.19
2023-03-21T00:19:03.851Z,8.12
2023-03-21T00:20:03.752Z,8.19
2023-03-21T00:21:29.657Z,8.19
2023-03-21T00:22:07.793Z,8.12
2023-03-21T00:23:04.483Z,8.12
2023-03-21T00:24:04.464Z,8.12
2023-03-21T00:25:04.389Z,8.12
2023-03-21T00:26:04.416Z,8.12
2023-03-21T00:27:26.742Z,8.19
2023-03-21T00:28:08.175Z,8.19
2023-03-21T00:29:04.393Z,8.19
2023-03-21T00:30:04.347Z,8.19
2023-03-21T00:31:04.324Z,8.19
2023-03-21T00:32:04.309Z,8.19
2023-03-21T00:33:15.788Z,8.19
2023-03-21T00:34:04.384Z,8.19
2023-03-21T00:35:26.060Z,8.19
2023-03-21T00:36:05.557Z,8.19
2023-03-21T00:37:03.598Z,8.19
2023-03-21T00:38:03.664Z,8.19
2023-03-21T00:39:03.763Z,8.19
2023-03-21T00:40:04.244Z,8.19
2023-03-21T00:41:07.871Z,8.19
2023-03-21T00:42:04.070Z,8.19
2023-03-21T00:43:04.073Z,8.19
2023-03-21T00:44:04.074Z,8.19
2023-03-21T00:45:04.154Z,8.19
2023-03-21T00:46:04.080Z,8.19
2023-03-21T00:47:07.320Z,8.19
2023-03-21T00:48:04.291Z,8.25
2023-03-21T00:49:04.243Z,8.25
2023-03-21T00:50:04.303Z,8.25
2023-03-21T00:51:04.336Z,8.19
2023-03-21T00:52:15.032Z,8.25
2023-03-21T00:54:03.670Z,8.25
2023-03-21T00:55:03.698Z,8.25
2023-03-21T00:56:03.664Z,8.25
2023-03-21T00:57:03.678Z,8.25
2023-03-21T00:58:03.772Z,8.25
2023-03-21T00:59:03.925Z,8.25
2023-03-21T01:00:03.919Z,8.25
2023-03-21T01:01:03.867Z,8.25
2023-03-21T01:02:03.970Z,8.25
2023-03-21T01:03:11.465Z,8.25
2023-03-21T01:04:03.908Z,8.25
2023-03-21T01:05:03.904Z,8.25
2023-03-21T01:06:03.918Z,8.25
2023-03-21T01:07:03.826Z,8.25
2023-03-21T01:08:06.034Z,8.31
2023-03-21T01:09:03.827Z,8.25
2023-03-21T01:10:04.079Z,8.25
2023-03-21T01:11:04.086Z,8.25
2023-03-21T01:12:04.151Z,8.31
2023-03-21T01:13:04.309Z,8.25
2023-03-21T01:14:19.048Z,8.25
2023-03-21T01:15:04.243Z,8.25
2023-03-21T01:16:04.373Z,8.25
2023-03-21T01:17:04.400Z,8.25
2023-03-21T01:18:04.409Z,8.25
2023-03-21T01:19:05.253Z,8.25
2023-03-21T01:20:04.315Z,8.25
2023-03-21T01:21:04.309Z,8.25
2023-03-21T01:22:04.414Z,8.25
2023-03-21T01:23:04.388Z,8.25
2023-03-21T01:24:04.398Z,8.25
2023-03-21T01:25:19.495Z,8.25
2023-03-21T01:26:03.601Z,8.25
2023-03-21T01:27:03.522Z,8.25
2023-03-21T01:28:03.594Z,8.25
2023-03-21T01:29:03.513Z,8.31
2023-03-21T01:30:06.207Z,8.25
2023-03-21T01:31:03.609Z,8.25
2023-03-21T01:32:03.508Z,8.25
2023-03-21T01:33:03.589Z,8.25
2023-03-21T01:34:03.680Z,8.25
2023-03-21T01:35:03.751Z,8.31
2023-03-21T01:36:12.601Z,8.25
2023-03-21T01:37:03.898Z,8.25
2023-03-21T01:38:03.831Z,8.31
2023-03-21T01:39:03.837Z,8.31
2023-03-21T01:40:03.821Z,8.25
2023-03-21T01:41:08.546Z,8.31
2023-03-21T01:42:03.904Z,8.25
2023-03-21T01:43:03.908Z,8.31
2023-03-21T01:44:03.824Z,8.31
2023-03-21T01:45:03.924Z,8.31
2023-03-21T01:46:03.866Z,8.25
2023-03-21T01:47:10.877Z,8.25
2023-03-21T01:48:04.012Z,8.25
2023-03-21T01:49:03.831Z,8.25
2023-03-21T01:50:03.855Z,8.25
2023-03-21T01:51:03.741Z,8.25
2023-03-21T01:52:12.092Z,8.25
2023-03-21T01:53:03.845Z,8.25
2023-03-21T01:54:03.841Z,8.25
2023-03-21T01:55:03.882Z,8.31
2023-03-21T01:56:03.756Z,8.25
2023-03-21T01:57:04.140Z,8.25
2023-03-21T01:58:06.908Z,8.25
2023-03-21T01:59:04.235Z,8.25
2023-03-21T02:00:04.318Z,8.25
2023-03-21T02:01:04.273Z,8.25
2023-03-21T02:02:04.245Z,8.25
2023-03-21T02:03:12.727Z,8.25
2023-03-21T02:04:04.272Z,8.25
2023-03-21T02:05:04.312Z,8.25
2023-03-21T02:06:04.310Z,8.25
2023-03-21T02:07:04.392Z,8.25
2023-03-21T02:08:04.386Z,8.25
2023-03-21T02:09:04.383Z,8.25
2023-03-21T02:10:04.388Z,8.25
2023-03-21T02:11:04.393Z,8.25
2023-03-21T02:12:04.480Z,8.25
2023-03-21T02:13:04.462Z,8.25
2023-03-21T02:14:06.934Z,8.25
2023-03-21T02:15:04.371Z,8.25
2023-03-21T02:16:04.384Z,8.25
2023-03-21T02:17:04.467Z,8.25
2023-03-21T02:18:03.496Z,8.25
2023-03-21T02:19:03.514Z,8.25
2023-03-21T02:20:03.843Z,8.25
2023-03-21T02:21:03.821Z,8.25
2023-03-21T02:22:03.598Z,8.25
2023-03-21T02:23:03.734Z,8.25
2023-03-21T02:24:03.749Z,8.25
2023-03-21T02:25:08.229Z,8.25
2023-03-21T02:26:03.828Z,8.25
2023-03-21T02:27:04.782Z,8.25
2023-03-21T02:28:03.893Z,8.25
2023-03-21T02:29:04.076Z,8.25
2023-03-21T02:30:03.992Z,8.25
2023-03-21T02:31:03.990Z,8.31
2023-03-21T02:32:16.392Z,8.31
2023-03-21T02:33:04.143Z,8.25
2023-03-21T02:34:04.106Z,8.25
2023-03-21T02:35:04.083Z,8.25
2023-03-21T02:36:13.498Z,8.25
2023-03-21T02:37:04.064Z,8.25
2023-03-21T02:38:04.147Z,8.25
2023-03-21T02:39:04.226Z,8.25
2023-03-21T02:40:04.232Z,8.25
2023-03-21T02:41:07.648Z,8.25
2023-03-21T02:42:04.253Z,8.25
2023-03-21T02:43:05.628Z,8.25
2023-03-21T02:44:04.237Z,8.25
2023-03-21T02:45:04.234Z,8.25
2023-03-21T02:46:04.257Z,8.25
2023-03-21T02:47:06.155Z,8.25
2023-03-21T02:48:04.478Z,8.25
2023-03-21T02:49:04.425Z,8.25
2023-03-21T02:50:04.300Z,8.25
2023-03-21T02:51:04.303Z,8.25
2023-03-21T02:52:14.410Z,8.25
2023-03-21T02:53:04.303Z,8.25
2023-03-21T02:54:26.336Z,8.25
2023-03-21T02:55:03.512Z,8.25
2023-03-21T02:56:03.499Z,8.25
2023-03-21T02:57:03.665Z,8.25
2023-03-21T02:58:11.981Z,8.25
2023-03-21T02:59:03.662Z,8.25
2023-03-21T03:00:14.179Z,8.25
2023-03-21T03:01:03.819Z,8.25
2023-03-21T03:02:03.836Z,8.25
2023-03-21T03:03:09.817Z,8.25
2023-03-21T03:04:03.967Z,8.25
2023-03-21T03:05:08.965Z,8.25
2023-03-21T03:06:04.069Z,8.25
2023-03-21T03:07:04.068Z,8.25
2023-03-21T03:08:03.914Z,8.19
2023-03-21T03:09:03.924Z,8.25
2023-03-21T03:10:03.522Z,8.25
2023-03-21T03:11:03.519Z,8.25
2023-03-21T03:12:03.426Z,8.25
2023-03-21T03:13:03.529Z,8.25
2023-03-21T03:14:15.814Z,8.25
2023-03-21T03:15:04.411Z,8.25
2023-03-21T03:16:03.841Z,8.25
2023-03-21T03:17:03.837Z,8.25
2023-03-21T03:18:03.915Z,8.25
2023-03-21T03:19:03.820Z,8.25
2023-03-21T03:20:13.862Z,8.25
2023-03-21T03:21:03.827Z,8.25
2023-03-21T03:22:03.854Z,8.25
2023-03-21T03:23:03.846Z,8.25
2023-03-21T03:24:03.827Z,8.25
2023-03-21T03:25:16.286Z,8.25
2023-03-21T03:26:03.838Z,8.25
2023-03-21T03:27:03.744Z,8.25
2023-03-21T03:28:03.910Z,8.25
2023-03-21T03:29:03.822Z,8.25
2023-03-21T03:30:04.002Z,8.25
2023-03-21T03:31:09.019Z,8.25
2023-03-21T03:32:04.122Z,8.25
2023-03-21T03:33:04.067Z,8.25
2023-03-21T03:34:03.984Z,8.25
2023-03-21T03:35:04.473Z,8.25
2023-03-21T03:36:06.724Z,8.25
2023-03-21T03:37:04.381Z,8.25
2023-03-21T03:38:04.464Z,8.25
2023-03-21T03:39:04.542Z,8.25
2023-03-21T03:40:04.478Z,8.25
2023-03-21T03:41:04.481Z,8.25
2023-03-21T03:42:15.218Z,8.25
2023-03-21T03:43:04.302Z,8.25
2023-03-21T03:44:04.472Z,8.25
2023-03-21T03:45:03.517Z,8.25
2023-03-21T03:46:03.504Z,8.25
2023-03-21T03:47:04.480Z,8.25
2023-03-21T03:48:03.581Z,8.25
2023-03-21T03:49:03.523Z,8.25
2023-03-21T03:50:04.462Z,8.25
2023-03-21T03:51:04.471Z,8.25
2023-03-21T03:52:04.470Z,8.25
2023-03-21T03:53:07.228Z,8.25
2023-03-21T03:54:03.614Z,8.25
2023-03-21T03:55:03.591Z,8.25
2023-03-21T03:56:03.587Z,8.25
2023-03-21T03:57:03.581Z,8.25
2023-03-21T03:58:06.389Z,8.25
2023-03-21T03:59:03.751Z,8.25
2023-03-21T04:00:03.668Z,8.25
2023-03-21T04:01:03.739Z,8.25
2023-03-21T04:02:03.877Z,8.25
2023-03-21T04:03:04.050Z,8.25
2023-03-21T04:04:12.862Z,8.19
2023-03-21T04:05:03.819Z,8.19
2023-03-21T04:06:03.825Z,8.19
2023-03-21T04:07:03.829Z,8.25
2023-03-21T04:08:03.915Z,8.19
2023-03-21T04:09:10.655Z,8.25
2023-03-21T04:10:03.989Z,8.19
2023-03-21T04:11:03.986Z,8.19
2023-03-21T04:12:03.912Z,8.19
2023-03-21T04:13:03.911Z,8.25
2023-03-21T04:14:03.836Z,8.19
2023-03-21T04:15:10.609Z,8.19
2023-03-21T04:16:04.038Z,8.19
2023-03-21T04:17:03.979Z,8.19
2023-03-21T04:18:03.916Z,8.19
2023-03-21T04:19:04.229Z,8.19
2023-03-21T04:20:11.288Z,8.19
2023-03-21T04:21:04.321Z,8.12
2023-03-21T04:22:04.238Z,8.12
2023-03-21T04:23:04.309Z,8.12
2023-03-21T04:24:04.395Z,8.12
2023-03-21T04:25:04.424Z,8.12
2023-03-21T04:26:04.378Z,8.12
2023-03-21T04:27:03.513Z,8.06
2023-03-21T04:28:03.591Z,8.06
2023-03-21T04:29:03.681Z,8.06
2023-03-21T04:30:03.758Z,8.06
2023-03-21T04:31:08.830Z,8.06
2023-03-21T04:32:03.867Z,8.06
2023-03-21T04:33:03.679Z,8.06
2023-03-21T04:34:03.832Z,8.00
2023-03-21T04:35:03.841Z,8.06
2023-03-21T04:36:03.904Z,8.06
2023-03-21T04:37:03.913Z,8.00
2023-03-21T04:38:03.915Z,8.00
2023-03-21T04:39:03.995Z,8.00
2023-03-21T04:40:04.089Z,8.00
2023-03-21T04:41:04.099Z,8.00
2023-03-21T04:42:04.089Z,8.00
2023-03-21T04:43:04.079Z,8.00
2023-03-21T04:44:03.985Z,8.00
2023-03-21T04:45:04.083Z,8.00
2023-03-21T04:46:04.220Z,8.00
2023-03-21T04:47:04.239Z,8.00
2023-03-21T04:48:04.188Z,7.94
2023-03-21T04:49:04.157Z,7.94
2023-03-21T04:50:04.331Z,7.94
2023-03-21T04:51:04.220Z,7.94
2023-03-21T04:52:04.391Z,7.94
2023-03-21T04:53:04.384Z,7.94
2023-03-21T04:54:04.386Z,7.94
2023-03-21T04:55:04.295Z,7.94
2023-03-21T04:56:04.299Z,7.94
2023-03-21T04:57:04.383Z,7.88
2023-03-21T04:58:04.395Z,7.88
2023-03-21T04:59:04.396Z,7.88
2023-03-21T05:00:04.504Z,7.88
2023-03-21T05:01:04.533Z,7.88
2023-03-21T05:02:04.476Z,7.88
2023-03-21T05:03:03.598Z,7.88
2023-03-21T05:04:03.642Z,7.88
2023-03-21T05:05:03.510Z,7.88
2023-03-21T05:06:03.514Z,7.88
2023-03-21T05:07:03.580Z,7.88
2023-03-21T05:08:03.582Z,7.88
2023-03-21T05:09:03.621Z,7.88
2023-03-21T05:10:03.611Z,7.88
2023-03-21T05:11:03.506Z,7.88
2023-03-21T05:12:03.585Z,7.88
2023-03-21T05:13:03.514Z,7.88
2023-03-21T05:14:03.584Z,7.88
2023-03-21T05:15:03.656Z,7.88
2023-03-21T05:16:03.659Z,7.88
2023-03-21T05:17:03.936Z,7.88
2023-03-21T05:18:03.825Z,8.00
2023-03-21T05:19:03.984Z,8.31
2023-03-21T05:20:03.845Z,8.25
2023-03-21T05:21:04.786Z,8.19
2023-03-21T05:22:04.068Z,8.12
2023-03-21T05:23:03.981Z,8.12
2023-03-21T05:24:03.902Z,8.06
2023-03-21T05:25:04.236Z,8.06
2023-03-21T05:26:04.381Z,8.19
2023-03-21T05:27:03.632Z,8.44
2023-03-21T05:28:03.585Z,8.44
2023-03-21T05:29:03.504Z,8.38
2023-03-21T05:30:03.497Z,8.50
2023-03-21T05:31:03.550Z,8.44
2023-03-21T05:32:03.580Z,8.50
2023-03-21T05:33:03.612Z,8.75
2023-03-21T05:34:03.588Z,8.62
2023-03-21T05:35:03.597Z,8.56
2023-03-21T05:36:03.621Z,8.50
2023-03-21T05:37:03.666Z,8.44
2023-03-21T05:38:03.755Z,8.56
2023-03-21T05:39:03.676Z,8.50
2023-03-21T05:40:03.754Z,8.44
2023-03-21T05:41:03.750Z,8.38
2023-03-21T05:42:03.764Z,8.38
2023-03-21T05:43:03.662Z,8.31
2023-03-21T05:44:03.589Z,8.31
2023-03-21T05:45:03.742Z,8.31
2023-03-21T05:46:03.704Z,8.31
2023-03-21T05:47:03.665Z,8.25
2023-03-21T05:48:03.828Z,8.25
2023-03-21T05:49:03.670Z,8.38
2023-03-21T05:50:03.583Z,8.44
2023-03-21T05:51:03.836Z,8.69
2023-03-21T05:52:03.835Z,8.69
2023-03-21T05:53:03.811Z,8.62
2023-03-21T05:54:04.398Z,8.56
2023-03-21T05:55:04.383Z,8.56
2023-03-21T05:56:04.470Z,8.56
2023-03-21T05:57:04.396Z,8.50
2023-03-21T05:58:04.262Z,8.50
2023-03-21T05:59:04.477Z,8.50
2023-03-21T06:00:04.401Z,8.50
2023-03-21T06:01:03.520Z,8.50
2023-03-21T06:02:03.689Z,8.56
2023-03-21T06:03:03.562Z,8.69
2023-03-21T06:04:03.533Z,8.81
2023-03-21T06:05:03.586Z,8.94
2023-03-21T06:06:03.624Z,8.94
2023-03-21T06:07:03.597Z,8.88
2023-03-21T06:08:03.709Z,8.88
2023-03-21T06:09:03.588Z,8.81
2023-03-21T06:10:03.590Z,8.81
2023-03-21T06:11:03.601Z,8.75
2023-03-21T06:12:03.670Z,8.75
2023-03-21T06:13:03.600Z,8.75
2023-03-21T06:14:03.514Z,8.88
2023-03-21T06:15:03.682Z,8.94
2023-03-21T06:16:03.639Z,9.25
2023-03-21T06:17:03.593Z,9.38
2023-03-21T06:18:03.833Z,9.56
2023-03-21T06:19:03.684Z,9.75
2023-03-21T06:20:03.746Z,9.88
2023-03-21T06:21:03.978Z,10.00
2023-03-21T06:22:03.863Z,9.94
2023-03-21T06:23:03.908Z,9.94
2023-03-21T06:24:03.968Z,9.81
2023-03-21T06:25:03.870Z,9.69
2023-03-21T06:26:03.633Z,9.62
2023-03-21T06:27:04.150Z,9.50
2023-03-21T06:28:03.765Z,9.44
2023-03-21T06:29:03.579Z,9.44
2023-03-21T06:30:03.588Z,9.38
2023-03-21T06:31:03.555Z,9.31
2023-03-21T06:32:03.674Z,9.31
2023-03-21T06:33:03.594Z,9.31
2023-03-21T06:34:03.511Z,9.31
2023-03-21T06:35:03.586Z,9.31
2023-03-21T06:36:03.652Z,9.31
2023-03-21T06:37:03.598Z,9.31
2023-03-21T06:38:03.677Z,9.44
2023-03-21T06:39:03.684Z,9.62
2023-03-21T06:40:03.597Z,9.62
2023-03-21T06:41:03.599Z,9.62
2023-03-21T06:42:03.590Z,9.56
2023-03-21T06:43:03.586Z,9.56
2023-03-21T06:44:04.552Z,9.56
2023-03-21T06:45:03.857Z,9.56
2023-03-21T06:46:03.773Z,9.56
2023-03-21T06:47:03.847Z,9.56
2023-03-21T06:48:03.877Z,9.56
2023-03-21T06:49:03.689Z,9.56
2023-03-21T06:50:03.761Z,9.62
2023-03-21T06:51:03.512Z,9.62
2023-03-21T06:52:08.595Z,9.62
2023-03-21T06:53:03.593Z,9.62
2023-03-21T06:54:03.506Z,9.62
2023-03-21T06:55:04.497Z,9.62
2023-03-21T06:56:03.501Z,9.62
2023-03-21T06:57:03.583Z,9.62
2023-03-21T06:58:03.584Z,9.69
2023-03-21T06:59:03.801Z,9.69
2023-03-21T07:00:03.886Z,9.69
2023-03-21T07:01:03.828Z,9.69
2023-03-21T07:02:03.843Z,9.69
2023-03-21T07:03:03.867Z,9.75
2023-03-21T07:04:04.007Z,9.75
2023-03-21T07:05:03.992Z,9.75
2023-03-21T07:06:04.965Z,9.81
2023-03-21T07:07:04.070Z,9.75
2023-03-21T07:08:03.993Z,9.81
2023-03-21T07:09:04.157Z,9.81
2023-03-21T07:10:04.155Z,9.88
2023-03-21T07:11:04.070Z,10.00
2023-03-21T07:12:04.034Z,10.00
2023-03-21T07:13:04.102Z,9.94
2023-03-21T07:14:03.991Z,10.00
2023-03-21T07:15:04.000Z,10.00
2023-03-21T07:16:04.187Z,10.00
2023-03-21T07:17:04.171Z,10.00
2023-03-21T07:18:04.170Z,10.00
2023-03-21T07:19:04.158Z,10.00
2023-03-21T07:20:04.089Z,10.06
2023-03-21T07:21:04.150Z,10.25
2023-03-21T07:22:04.077Z,10.44
2023-03-21T07:23:04.088Z,10.75
2023-03-21T07:24:04.259Z,10.81
2023-03-21T07:25:05.327Z,10.88
2023-03-21T07:26:04.339Z,10.94
2023-03-21T07:27:04.178Z,11.00
2023-03-21T07:28:04.151Z,11.00
2023-03-21T07:29:04.088Z,11.00
2023-03-21T07:30:04.161Z,10.94
2023-03-21T07:31:04.290Z,10.94
2023-03-21T07:32:04.107Z,10.94
2023-03-21T07:33:04.170Z,10.94
2023-03-21T07:34:04.157Z,10.94
2023-03-21T07:35:04.245Z,11.19
2023-03-21T07:36:04.267Z,11.56
2023-03-21T07:37:04.345Z,11.56
2023-03-21T07:38:03.621Z,11.56
2023-03-21T07:39:03.620Z,11.69
2023-03-21T07:40:03.692Z,11.62
2023-03-21T07:41:04.082Z,11.69
2023-03-21T07:42:04.260Z,11.88
2023-03-21T07:43:04.264Z,11.81
2023-03-21T07:44:04.259Z,11.81
2023-03-21T07:45:04.179Z,11.81
2023-03-21T07:46:04.233Z,11.81
2023-03-21T07:47:04.067Z,11.81
2023-03-21T07:48:05.135Z,11.88
2023-03-21T07:49:04.254Z,11.94
2023-03-21T07:50:04.451Z,12.00
2023-03-21T07:51:03.532Z,12.00
2023-03-21T07:52:04.659Z,12.06
2023-03-21T07:53:04.091Z,12.06
2023-03-21T07:54:04.184Z,12.12
2023-03-21T07:55:04.154Z,12.12
2023-03-21T07:56:04.281Z,12.25
2023-03-21T07:57:04.402Z,12.31
2023-03-21T07:58:04.490Z,12.31
2023-03-21T07:59:04.322Z,12.38
2023-03-21T08:00:04.390Z,12.44
2023-03-21T08:01:04.398Z,12.50
2023-03-21T08:02:04.521Z,12.50
2023-03-21T08:03:04.761Z,12.69
2023-03-21T08:04:04.397Z,12.88
2023-03-21T08:05:04.394Z,12.94
2023-03-21T08:06:04.491Z,12.94
2023-03-21T08:07:04.472Z,13.12
2023-03-21T08:08:03.518Z,13.31
2023-03-21T08:09:03.683Z,13.56
2023-03-21T08:10:03.679Z,13.75
2023-03-21T08:11:03.944Z,13.88
2023-03-21T08:12:03.852Z,14.00
2023-03-21T08:13:03.672Z,14.06
2023-03-21T08:14:03.775Z,14.06
2023-03-21T08:15:03.756Z,14.00
2023-03-21T08:16:03.677Z,13.94
2023-03-21T08:17:03.786Z,13.94
2023-03-21T08:18:03.787Z,13.94
2023-03-21T08:19:03.846Z,13.94
2023-03-21T08:20:03.843Z,13.94
2023-03-21T08:21:03.729Z,13.94
2023-03-21T08:22:03.776Z,13.94
2023-03-21T08:23:03.862Z,14.06
2023-03-21T08:24:03.892Z,14.12
2023-03-21T08:25:04.076Z,14.06
2023-03-21T08:26:04.005Z,14.06
2023-03-21T08:27:04.090Z,14.00
2023-03-21T08:28:03.930Z,14.00
2023-03-21T08:29:03.876Z,14.00
2023-03-21T08:30:03.986Z,14.00
2023-03-21T08:31:04.053Z,14.00
2023-03-21T08:32:04.047Z,14.06
2023-03-21T08:33:04.088Z,14.06
2023-03-21T08:34:04.128Z,14.12
2023-03-21T08:35:04.148Z,14.12
2023-03-21T08:36:04.225Z,14.19
2023-03-21T08:37:04.082Z,14.19
2023-03-21T08:38:04.193Z,14.25
2023-03-21T08:39:04.237Z,14.38
2023-03-21T08:40:04.364Z,14.56
2023-03-21T08:41:04.171Z,14.56
2023-03-21T08:42:04.399Z,14.62
2023-03-21T08:43:04.311Z,14.62
2023-03-21T08:44:04.419Z,14.81
2023-03-21T08:45:04.389Z,14.81
2023-03-21T08:46:03.534Z,14.88
2023-03-21T08:47:03.512Z,14.81
2023-03-21T08:48:03.690Z,14.81
2023-03-21T08:49:03.615Z,14.88
2023-03-21T08:50:03.598Z,14.88
2023-03-21T08:51:03.758Z,14.94
2023-03-21T08:52:03.765Z,14.94
2023-03-21T08:53:03.758Z,15.12
2023-03-21T08:54:03.672Z,15.12
2023-03-21T08:55:03.709Z,15.25
2023-03-21T08:56:03.762Z,15.38
2023-03-21T08:57:03.862Z,15.56
2023-03-21T08:58:03.752Z,15.50
2023-03-21T08:59:03.846Z,15.50
2023-03-21T09:00:03.763Z,15.50
2023-03-21T09:01:03.920Z,15.44
2023-03-21T09:02:03.863Z,15.38
2023-03-21T09:03:03.677Z,15.38
2023-03-21T09:04:03.780Z,15.38
2023-03-21T09:05:03.685Z,15.38
2023-03-21T09:06:03.841Z,15.38
2023-03-21T09:07:03.754Z,15.50
2023-03-21T09:08:03.917Z,15.69
2023-03-21T09:09:03.931Z,15.62
2023-03-21T09:10:19.482Z,15.69
2023-03-21T09:11:03.926Z,15.94
2023-03-21T09:12:03.996Z,16.25
2023-03-21T09:13:03.920Z,16.50
2023-03-21T09:14:04.091Z,16.69
2023-03-21T09:15:04.154Z,16.69
2023-03-21T09:16:04.183Z,16.69
2023-03-21T09:17:04.267Z,16.94
2023-03-21T09:18:04.244Z,17.06
2023-03-21T09:19:04.237Z,17.12
2023-03-21T09:20:04.306Z,17.19
2023-03-21T09:21:04.323Z,17.25
2023-03-21T09:22:04.274Z,17.25
2023-03-21T09:23:04.163Z,17.25
2023-03-21T09:24:04.261Z,17.25
2023-03-21T09:25:04.489Z,17.38
2023-03-21T09:26:04.406Z,17.31
2023-03-21T09:27:04.326Z,17.38
2023-03-21T09:28:04.242Z,17.25
2023-03-21T09:29:04.234Z,17.25
2023-03-21T09:30:04.313Z,17.31
2023-03-21T09:31:04.410Z,17.38
2023-03-21T09:32:04.484Z,17.25
2023-03-21T09:33:04.465Z,17.19
2023-03-21T09:34:03.667Z,17.25
2023-03-21T09:35:03.591Z,17.25
2023-03-21T09:36:03.672Z,17.38
2023-03-21T09:37:03.827Z,17.44
2023-03-21T09:38:03.850Z,17.38
2023-03-21T09:39:03.782Z,17.50
2023-03-21T09:40:03.925Z,17.56
2023-03-21T09:41:04.014Z,17.56
2023-03-21T09:42:04.007Z,17.69
2023-03-21T09:43:04.080Z,17.81
2023-03-21T09:44:04.016Z,17.75
2023-03-21T09:45:04.072Z,17.50
2023-03-21T09:46:04.080Z,17.31
2023-03-21T09:47:04.164Z,17.12
2023-03-21T09:48:04.133Z,17.00
2023-03-21T09:49:04.087Z,16.94
2023-03-21T09:50:13.926Z,16.81
2023-03-21T09:51:03.992Z,16.75
2023-03-21T09:52:03.909Z,16.69
2023-03-21T09:53:04.008Z,16.62
2023-03-21T09:54:04.028Z,16.62
2023-03-21T09:55:04.082Z,16.56
2023-03-21T09:56:04.158Z,16.50
2023-03-21T09:57:04.166Z,16.44
2023-03-21T09:58:04.240Z,16.44
2023-03-21T09:59:04.239Z,16.38
2023-03-21T10:00:04.190Z,16.38
2023-03-21T10:01:04.237Z,16.25
2023-03-21T10:02:04.086Z,16.25
2023-03-21T10:03:04.155Z,16.19
2023-03-21T10:04:04.229Z,16.19
2023-03-21T10:05:04.161Z,16.19
2023-03-21T10:06:04.154Z,16.19
2023-03-21T10:07:04.336Z,16.12
2023-03-21T10:08:04.331Z,16.12
2023-03-21T10:09:04.234Z,16.12
2023-03-21T10:10:04.234Z,16.12
2023-03-21T10:11:04.152Z,16.12
2023-03-21T10:12:04.352Z,16.12
2023-03-21T10:13:04.316Z,16.12
2023-03-21T10:14:04.395Z,16.12
2023-03-21T10:15:04.224Z,16.12
2023-03-21T10:16:04.350Z,16.12
2023-03-21T10:17:04.321Z,16.12
2023-03-21T10:18:04.464Z,16.12
2023-03-21T10:19:03.604Z,16.12
2023-03-21T10:20:03.592Z,16.12
2023-03-21T10:21:03.595Z,16.12
2023-03-21T10:22:04.337Z,16.12
2023-03-21T10:23:03.675Z,16.44
2023-03-21T10:24:03.838Z,16.50
2023-03-21T10:25:03.836Z,16.44
2023-03-21T10:26:03.801Z,16.38
2023-03-21T10:27:03.841Z,16.38
2023-03-21T10:28:03.862Z,16.31
2023-03-21T10:29:03.900Z,16.31
2023-03-21T10:30:03.827Z,16.25
2023-03-21T10:31:03.832Z,16.25
2023-03-21T10:32:04.038Z,16.19
2023-03-21T10:33:03.965Z,16.19
2023-03-21T10:34:04.064Z,16.19
2023-03-21T10:35:04.063Z,16.19
2023-03-21T10:36:04.243Z,16.19
2023-03-21T10:37:04.214Z,16.25
2023-03-21T10:38:04.313Z,16.25
2023-03-21T10:39:04.240Z,16.25
2023-03-21T10:40:04.308Z,16.25
2023-03-21T10:41:04.427Z,16.25
2023-03-21T10:42:04.388Z,16.25
2023-03-21T10:43:04.391Z,16.25
2023-03-21T10:44:04.389Z,16.25
2023-03-21T10:45:04.390Z,16.50
2023-03-21T10:46:04.645Z,16.75
2023-03-21T10:47:04.577Z,16.88
2023-03-21T10:48:03.776Z,16.94
2023-03-21T10:49:03.810Z,17.06
2023-03-21T10:50:08.767Z,17.00
2023-03-21T10:51:03.834Z,16.94
2023-03-21T10:52:03.906Z,16.94
2023-03-21T10:53:04.007Z,16.88
2023-03-21T10:54:04.072Z,16.81
2023-03-21T10:55:03.993Z,16.81
2023-03-21T10:56:04.070Z,16.75
2023-03-21T10:57:04.237Z,16.75
2023-03-21T10:58:04.229Z,16.75
2023-03-21T10:59:04.351Z,16.75
2023-03-21T11:00:04.240Z,16.75
2023-03-21T11:01:04.187Z,16.69
2023-03-21T11:02:04.125Z,16.69
2023-03-21T11:03:04.064Z,16.69
2023-03-21T11:04:04.152Z,16.69
2023-03-21T11:05:04.184Z,16.69
2023-03-21T11:06:04.061Z,16.69
2023-03-21T11:07:03.905Z,16.69
2023-03-21T11:08:04.001Z,16.69
2023-03-21T11:09:04.010Z,16.69
2023-03-21T11:10:04.063Z,16.69
2023-03-21T11:11:03.999Z,16.75
2023-03-21T11:12:03.990Z,16.75
2023-03-21T11:13:04.074Z,16.75
2023-03-21T11:14:04.064Z,16.81
2023-03-21T11:15:03.996Z,16.81
2023-03-21T11:16:03.991Z,16.88
2023-03-21T11:17:04.043Z,16.88
2023-03-21T11:18:04.153Z,16.88
2023-03-21T11:19:04.072Z,16.88
2023-03-21T11:20:04.081Z,16.94
2023-03-21T11:21:04.006Z,16.94
2023-03-21T11:22:03.924Z,16.94
2023-03-21T11:23:03.996Z,16.94
2023-03-21T11:24:04.316Z,17.00
2023-03-21T11:25:04.234Z,17.00
2023-03-21T11:26:04.224Z,17.06
2023-03-21T11:27:04.232Z,17.06
2023-03-21T11:28:04.243Z,17.06
2023-03-21T11:29:04.067Z,17.06
2023-03-21T11:30:04.072Z,17.06
2023-03-21T11:31:04.184Z,17.12
2023-03-21T11:32:04.076Z,17.12
2023-03-21T11:33:03.993Z,17.19
2023-03-21T11:34:04.070Z,17.19
2023-03-21T11:35:04.184Z,17.19
2023-03-21T11:36:04.221Z,17.25
2023-03-21T11:37:04.023Z,17.25
2023-03-21T11:38:04.074Z,17.31
2023-03-21T11:39:04.069Z,17.31
2023-03-21T11:40:04.143Z,17.38
2023-03-21T11:41:04.266Z,17.38
2023-03-21T11:42:04.240Z,17.44
2023-03-21T11:43:04.338Z,17.44
2023-03-21T11:44:04.261Z,17.50
2023-03-21T11:45:04.262Z,17.50
2023-03-21T11:46:04.386Z,17.50
2023-03-21T11:47:04.318Z,17.56
2023-03-21T11:48:04.576Z,17.56
2023-03-21T11:49:04.329Z,17.56
2023-03-21T11:50:05.424Z,17.62
2023-03-21T11:51:04.317Z,17.62
2023-03-21T11:52:04.438Z,17.69
2023-03-21T11:53:04.423Z,17.69
2023-03-21T11:54:04.488Z,17.75
2023-03-21T11:55:04.478Z,17.75
2023-03-21T11:56:04.407Z,17.75
2023-03-21T11:57:04.418Z,17.81
2023-03-21T11:58:13.682Z,17.81
2023-03-21T11:59:04.435Z,17.81
2023-03-21T12:00:04.337Z,17.81
2023-03-21T12:01:04.336Z,17.88
2023-03-21T12:02:04.318Z,17.88
2023-03-21T12:03:04.275Z,17.88
2023-03-21T12:04:04.273Z,17.88
2023-03-21T12:05:04.126Z,17.88
2023-03-21T12:06:03.990Z,17.94
2023-03-21T12:07:03.923Z,17.94
2023-03-21T12:08:04.000Z,17.94
2023-03-21T12:09:04.003Z,17.94
2023-03-21T12:10:04.077Z,18.00
2023-03-21T12:11:04.076Z,17.94
2023-03-21T12:12:04.011Z,17.94
2023-03-21T12:13:04.003Z,17.94
2023-03-21T12:14:03.836Z,17.94
2023-03-21T12:15:04.030Z,17.94
2023-03-21T12:16:04.047Z,17.94
2023-03-21T12:17:04.080Z,18.00
2023-03-21T12:18:04.002Z,17.94
2023-03-21T12:19:04.072Z,18.00
2023-03-21T12:20:04.001Z,18.00
2023-03-21T12:21:04.087Z,17.94
2023-03-21T12:22:03.990Z,17.94
2023-03-21T12:23:04.097Z,17.94
2023-03-21T12:24:03.905Z,17.94
2023-03-21T12:25:03.918Z,17.94
2023-03-21T12:26:04.079Z,17.94
2023-03-21T12:27:03.987Z,17.94
2023-03-21T12:28:04.147Z,18.00
2023-03-21T12:29:03.995Z,18.00
2023-03-21T12:30:03.915Z,18.00
2023-03-21T12:31:03.960Z,18.00
2023-03-21T12:32:03.901Z,18.06
2023-03-21T12:33:03.839Z,18.06
2023-03-21T12:34:03.847Z,18.06
2023-03-21T12:35:03.745Z,18.12
2023-03-21T12:36:03.790Z,18.12
2023-03-21T12:37:03.749Z,18.12
2023-03-21T12:38:03.920Z,18.12
2023-03-21T12:39:03.911Z,18.19
2023-03-21T12:40:03.981Z,18.19
2023-03-21T12:41:04.252Z,18.19
2023-03-21T12:42:03.756Z,18.19
2023-03-21T12:43:03.745Z,18.19
2023-03-21T12:44:03.524Z,18.19
2023-03-21T12:45:08.911Z,18.19
2023-03-21T12:46:04.498Z,18.19
2023-03-21T12:47:04.470Z,18.25
2023-03-21T12:48:04.362Z,18.25
2023-03-21T12:49:04.311Z,18.25
2023-03-21T12:50:04.234Z,18.25
2023-03-21T12:51:04.151Z,18.25
2023-03-21T12:52:04.150Z,18.25
2023-03-21T12:53:04.071Z,18.25
2023-03-21T12:54:04.091Z,18.31
2023-03-21T12:55:04.002Z,18.31
2023-03-21T12:56:04.002Z,18.25
2023-03-21T12:57:04.092Z,18.25
2023-03-21T12:58:03.901Z,18.31
2023-03-21T12:59:03.836Z,18.31
2023-03-21T13:00:04.016Z,18.31
2023-03-21T13:01:03.929Z,18.31
2023-03-21T13:02:03.754Z,18.31
2023-03-21T13:03:03.855Z,18.31
2023-03-21T13:04:03.902Z,18.31
2023-03-21T13:05:03.833Z,18.31
2023-03-21T13:06:03.756Z,18.31
2023-03-21T13:07:03.700Z,18.25